createdAt,value
2022-12-22T00:01:20.024Z,1.49
2022-12-22T00:04:06.089Z,1.58
2022-12-22T00:06:52.029Z,1.60
2022-12-22T00:09:37.629Z,1.61
2022-12-22T00:12:23.685Z,1.64
2022-12-22T00:15:09.414Z,1.65
2022-12-22T00:17:55.449Z,1.64
2022-12-22T00:20:41.722Z,1.64
2022-12-22T00:23:30.452Z,1.61
2022-12-22T00:26:18.191Z,1.61
2022-12-22T00:29:03.830Z,1.69
2022-12-22T00:31:49.796Z,1.71
2022-12-22T00:34:39.312Z,1.68
2022-12-22T00:37:31.511Z,1.66
2022-12-22T00:40:20.274Z,1.60
2022-12-22T00:43:05.935Z,1.62
2022-12-22T00:45:52.106Z,1.64
2022-12-22T00:48:44.564Z,1.69
2022-12-22T00:51:31.691Z,1.70
2022-12-22T00:54:17.882Z,1.56
2022-12-22T00:57:03.653Z,1.68
2022-12-22T00:59:51.356Z,1.62
2022-12-22T01:02:37.710Z,1.58
2022-12-22T01:05:23.960Z,1.58
2022-12-22T01:08:09.634Z,1.53
2022-12-22T01:10:55.878Z,1.53
2022-12-22T01:13:42.140Z,1.45
2022-12-22T01:16:30.775Z,1.57
2022-12-22T01:19:16.783Z,1.56
2022-12-22T01:22:03.012Z,1.62
2022-12-22T01:24:49.738Z,1.60
2022-12-22T01:27:35.980Z,1.48
2022-12-22T01:30:22.316Z,1.44
2022-12-22T01:33:08.494Z,1.43
2022-12-22T01:35:55.096Z,1.19
2022-12-22T01:38:42.893Z,1.48
2022-12-22T01:41:34.652Z,1.59
2022-12-22T01:44:20.228Z,1.35
2022-12-22T01:47:06.222Z,1.61
2022-12-22T01:50:02.552Z,1.58
2022-12-22T01:52:55.246Z,1.54
2022-12-22T01:55:43.913Z,1.40
2022-12-22T01:58:40.123Z,1.38
2022-12-22T02:01:26.398Z,1.37
2022-12-22T02:04:12.413Z,1.52
2022-12-22T02:07:01.065Z,1.41
2022-12-22T02:09:56.424Z,1.29
2022-12-22T02:12:50.593Z,1.14
2022-12-22T02:15:51.360Z,1.03
2022-12-22T02:19:01.021Z,1.10
2022-12-22T02:21:52.629Z,1.17
2022-12-22T02:25:02.599Z,1.13
2022-12-22T02:27:52.266Z,0.87
2022-12-22T02:30:38.995Z,0.93
2022-12-22T02:33:26.522Z,0.81
2022-12-22T02:36:26.715Z,0.96
2022-12-22T02:39:23.730Z,1.09
2022-12-22T02:42:51.190Z,1.20
2022-12-22T02:45:47.482Z,1.14
2022-12-22T02:49:01.043Z,1.06
2022-12-22T02:51:50.209Z,1.04
2022-12-22T02:54:39.846Z,1.11
2022-12-22T02:57:26.110Z,1.12
2022-12-22T03:00:14.261Z,1.17
2022-12-22T03:03:07.829Z,1.18
2022-12-22T03:05:53.974Z,1.25
2022-12-22T03:08:39.786Z,1.28
2022-12-22T03:11:26.542Z,1.28
2022-12-22T03:14:12.205Z,1.32
2022-12-22T03:16:57.789Z,1.21
2022-12-22T03:19:43.434Z,1.27
2022-12-22T03:22:29.017Z,1.33
2022-12-22T03:25:16.845Z,1.36
2022-12-22T03:27:45.489Z,1.33
2022-12-22T03:30:14.957Z,1.33
2022-12-22T03:32:42.394Z,1.33
2022-12-22T03:35:10.853Z,1.40
2022-12-22T03:37:38.369Z,1.54
2022-12-22T03:40:07.473Z,1.47
2022-12-22T03:42:53.490Z,1.53
2022-12-22T03:45:41.057Z,1.54
2022-12-22T03:48:08.603Z,1.44
2022-12-22T03:50:36.389Z,1.44
2022-12-22T03:53:10.668Z,1.42
2022-12-22T03:55:38.098Z,1.58
2022-12-22T03:58:05.558Z,1.57
2022-12-22T04:00:33.126Z,1.56
2022-12-22T04:03:01.579Z,1.56
2022-12-22T04:05:28.926Z,1.52
2022-12-22T04:07:56.425Z,1.49
2022-12-22T04:10:42.085Z,1.43
2022-12-22T04:13:11.268Z,1.43
2022-12-22T04:15:39.767Z,1.37
2022-12-22T04:18:08.315Z,1.31
2022-12-22T04:20:37.812Z,1.32
2022-12-22T04:23:05.240Z,1.27
2022-12-22T04:25:33.768Z,1.28
2022-12-22T04:28:00.873Z,1.24
2022-12-22T04:30:28.124Z,1.19
2022-12-22T04:32:55.525Z,1.22
2022-12-22T04:35:23.002Z,1.25
2022-12-22T04:37:50.446Z,1.21
2022-12-22T04:40:18.248Z,1.29
2022-12-22T04:42:52.498Z,1.29
2022-12-22T04:45:19.941Z,1.30
2022-12-22T04:47:47.564Z,1.33
2022-12-22T04:50:15.069Z,1.35
2022-12-22T04:52:42.523Z,1.38
2022-12-22T04:55:10.090Z,1.38
2022-12-22T04:57:40.821Z,1.39
2022-12-22T05:00:09.744Z,1.36
2022-12-22T05:02:36.948Z,1.36
2022-12-22T05:05:04.449Z,1.31
2022-12-22T05:07:31.692Z,1.32
2022-12-22T05:09:59.119Z,1.31
2022-12-22T05:12:45.173Z,1.31
2022-12-22T05:15:13.485Z,1.30
2022-12-22T05:17:41.062Z,1.26
2022-12-22T05:20:09.115Z,1.20
2022-12-22T05:22:43.710Z,1.15
2022-12-22T05:25:11.310Z,1.13
2022-12-22T05:27:38.724Z,1.06
2022-12-22T05:30:06.811Z,1.08
2022-12-22T05:32:35.373Z,1.07
2022-12-22T05:35:04.148Z,1.06
2022-12-22T05:37:31.760Z,1.04
2022-12-22T05:40:06.775Z,0.98
2022-12-22T05:42:36.122Z,0.96
2022-12-22T05:45:07.626Z,0.96
2022-12-22T05:47:35.570Z,0.96
2022-12-22T05:50:03.365Z,1.02
2022-12-22T05:52:31.565Z,0.99
2022-12-22T05:54:59.028Z,1.07
2022-12-22T05:57:26.518Z,1.07
2022-12-22T05:59:53.887Z,1.04
2022-12-22T06:02:21.652Z,0.93
2022-12-22T06:04:48.897Z,0.91
2022-12-22T06:07:16.397Z,0.93
2022-12-22T06:09:45.950Z,0.90
2022-12-22T06:12:13.271Z,0.96
2022-12-22T06:14:40.706Z,0.91
2022-12-22T06:17:08.415Z,0.95
2022-12-22T06:19:35.623Z,1.01
2022-12-22T06:22:05.179Z,0.91
2022-12-22T06:24:34.671Z,1.03
2022-12-22T06:27:01.698Z,1.05
2022-12-22T06:29:35.336Z,1.02
2022-12-22T06:32:03.711Z,0.99
2022-12-22T06:34:31.102Z,0.93
2022-12-22T06:36:58.583Z,0.93
2022-12-22T06:39:25.945Z,0.89
2022-12-22T06:42:11.861Z,0.92
2022-12-22T06:44:39.450Z,0.95
2022-12-22T06:47:07.324Z,0.98
2022-12-22T06:49:34.878Z,0.95
2022-12-22T06:52:02.466Z,0.97
2022-12-22T06:54:30.755Z,1.02
2022-12-22T06:56:58.157Z,1.09
2022-12-22T06:59:26.685Z,1.14
2022-12-22T07:01:54.163Z,1.19
2022-12-22T07:04:22.446Z,1.21
2022-12-22T07:06:51.053Z,1.19
2022-12-22T07:09:18.585Z,1.21
2022-12-22T07:11:45.966Z,1.29
2022-12-22T07:14:13.400Z,1.28
2022-12-22T07:16:40.993Z,1.35
2022-12-22T07:19:08.378Z,1.34
2022-12-22T07:21:35.810Z,1.38
2022-12-22T07:24:02.845Z,1.37
2022-12-22T07:26:30.340Z,1.36
2022-12-22T07:28:57.537Z,1.38
2022-12-22T07:31:24.840Z,1.45
2022-12-22T07:33:52.236Z,1.47
2022-12-22T07:36:20.526Z,1.61
2022-12-22T07:38:50.970Z,1.65
2022-12-22T07:41:38.801Z,1.74
2022-12-22T07:44:08.563Z,1.78
2022-12-22T07:46:38.922Z,1.82
2022-12-22T07:49:25.927Z,1.84
2022-12-22T07:51:57.055Z,1.91
2022-12-22T07:54:26.947Z,1.97
2022-12-22T07:56:54.861Z,1.96
2022-12-22T07:59:22.397Z,2.02
2022-12-22T08:01:50.247Z,2.10
2022-12-22T08:04:18.122Z,2.08
2022-12-22T08:06:45.493Z,2.11
2022-12-22T08:09:18.116Z,2.09
2022-12-22T08:11:46.559Z,2.11
2022-12-22T08:14:13.822Z,2.19
2022-12-22T08:16:41.364Z,2.25
2022-12-22T08:19:09.805Z,2.35
2022-12-22T08:21:37.270Z,2.38
2022-12-22T08:24:05.024Z,2.47
2022-12-22T08:26:37.119Z,2.58
2022-12-22T08:29:16.300Z,2.63
2022-12-22T08:31:49.872Z,2.67
2022-12-22T08:34:17.402Z,2.74
2022-12-22T08:36:50.767Z,2.83
2022-12-22T08:39:21.709Z,3.00
2022-12-22T08:41:52.855Z,3.16
2022-12-22T08:44:27.398Z,3.40
2022-12-22T08:46:57.045Z,3.41
2022-12-22T08:49:24.716Z,3.34
2022-12-22T08:51:53.340Z,3.39
2022-12-22T08:54:26.939Z,3.36
2022-12-22T08:56:54.399Z,3.25
2022-12-22T08:59:21.896Z,3.18
2022-12-22T09:01:51.322Z,3.19
2022-12-22T09:04:21.555Z,3.17
2022-12-22T09:06:49.215Z,3.22
2022-12-22T09:09:17.168Z,3.26
2022-12-22T09:11:44.824Z,3.18
2022-12-22T09:14:13.511Z,3.15
2022-12-22T09:16:42.463Z,3.17
2022-12-22T09:19:10.848Z,3.21
2022-12-22T09:21:39.250Z,3.29
2022-12-22T09:24:07.867Z,3.38
2022-12-22T09:26:35.554Z,3.41
2022-12-22T09:29:03.028Z,3.43
2022-12-22T09:31:30.635Z,3.43
2022-12-22T09:33:58.712Z,3.50
2022-12-22T09:36:29.597Z,3.49
2022-12-22T09:38:57.270Z,3.51
2022-12-22T09:41:35.092Z,3.54
2022-12-22T09:44:34.267Z,3.53
2022-12-22T09:47:04.477Z,3.54
2022-12-22T09:49:32.021Z,3.54
2022-12-22T09:52:04.937Z,3.55
2022-12-22T09:54:32.538Z,3.57
2022-12-22T09:57:00.044Z,3.57
2022-12-22T09:59:29.496Z,3.58
2022-12-22T10:02:35.968Z,3.67
2022-12-22T10:05:38.631Z,3.74
2022-12-22T10:08:13.957Z,3.79
2022-12-22T10:10:42.361Z,3.78
2022-12-22T10:13:20.285Z,3.86
2022-12-22T10:15:48.566Z,3.80
2022-12-22T10:18:21.262Z,3.77
2022-12-22T10:21:06.652Z,3.82
2022-12-22T10:23:49.084Z,3.85
2022-12-22T10:26:29.773Z,3.82
2022-12-22T10:29:08.149Z,3.89
2022-12-22T10:31:40.102Z,3.97
2022-12-22T10:34:14.363Z,3.92
2022-12-22T10:36:49.008Z,3.99
2022-12-22T10:39:54.835Z,3.93
2022-12-22T10:42:24.358Z,3.93
2022-12-22T10:44:51.909Z,3.99
2022-12-22T10:47:24.625Z,3.99
2022-12-22T10:52:30.911Z,4.01
2022-12-22T10:55:20.485Z,4.00
2022-12-22T10:57:48.279Z,4.09
2022-12-22T11:00:30.447Z,4.09
2022-12-22T11:03:12.354Z,4.14
2022-12-22T11:05:40.235Z,4.17
2022-12-22T11:08:19.381Z,4.26
2022-12-22T11:10:52.909Z,4.25
2022-12-22T11:13:31.380Z,4.28
2022-12-22T11:16:17.821Z,4.31
2022-12-22T11:19:04.880Z,4.29
2022-12-22T11:21:38.417Z,4.31
2022-12-22T11:24:05.715Z,4.32
2022-12-22T11:27:06.187Z,4.34
2022-12-22T11:29:56.788Z,4.38
2022-12-22T11:32:49.150Z,4.36
2022-12-22T11:35:31.113Z,4.34
2022-12-22T11:38:30.943Z,4.25
2022-12-22T11:41:32.357Z,4.22
2022-12-22T11:44:28.787Z,4.23
2022-12-22T11:47:09.150Z,4.15
2022-12-22T11:49:47.147Z,4.12
2022-12-22T11:52:48.554Z,4.12
2022-12-22T11:55:42.740Z,4.08
2022-12-22T11:58:26.559Z,4.09
2022-12-22T12:01:17.957Z,4.07
2022-12-22T12:04:09.105Z,4.08
2022-12-22T12:07:11.889Z,4.06
2022-12-22T12:10:03.935Z,4.01
2022-12-22T12:12:56.144Z,4.02
2022-12-22T12:15:47.708Z,3.96
2022-12-22T12:18:28.374Z,3.94
2022-12-22T12:21:28.564Z,3.94
2022-12-22T12:24:30.880Z,3.90
2022-12-22T12:27:16.567Z,3.86
2022-12-22T12:30:36.930Z,3.85
2022-12-22T12:33:01.329Z,3.86
2022-12-22T12:35:56.392Z,3.89
2022-12-22T12:39:06.270Z,3.84
2022-12-22T12:41:24.548Z,3.85
2022-12-22T12:43:55.263Z,3.80
2022-12-22T12:46:56.682Z,3.80
2022-12-22T12:49:37.158Z,3.74
2022-12-22T12:52:12.911Z,3.69
2022-12-22T12:54:49.800Z,3.72
2022-12-22T12:57:26.307Z,3.76
2022-12-22T12:59:59.076Z,3.77
2022-12-22T13:02:32.096Z,3.76
2022-12-22T13:05:33.359Z,3.76
2022-12-22T13:08:22.440Z,3.72
2022-12-22T13:11:31.147Z,3.66
2022-12-22T13:14:03.144Z,3.69
2022-12-22T13:16:35.273Z,3.70
2022-12-22T13:19:15.381Z,3.71
2022-12-22T13:21:54.707Z,3.70
2022-12-22T13:24:30.526Z,3.61
2022-12-22T13:27:10.552Z,3.68
2022-12-22T13:29:43.622Z,3.69
2022-12-22T13:32:34.479Z,3.64
2022-12-22T13:35:32.681Z,3.68
2022-12-22T13:38:02.461Z,3.73
2022-12-22T13:40:42.450Z,3.65
2022-12-22T13:43:18.219Z,3.57
2022-12-22T13:45:53.212Z,3.57
2022-12-22T13:48:25.779Z,3.56
2022-12-22T13:51:02.951Z,3.59
2022-12-22T13:56:55.293Z,3.59
2022-12-22T13:59:25.446Z,3.81
2022-12-22T14:02:15.875Z,3.78
2022-12-22T14:04:51.966Z,3.70
2022-12-22T14:07:25.595Z,3.67
2022-12-22T14:09:57.068Z,3.57
2022-12-22T14:12:30.322Z,3.53
2022-12-22T14:15:01.521Z,3.54
2022-12-22T14:17:32.968Z,3.64
2022-12-22T14:20:09.752Z,3.84
2022-12-22T14:22:45.639Z,4.00
2022-12-22T14:25:19.823Z,4.01
2022-12-22T14:27:53.364Z,4.03
2022-12-22T14:30:20.796Z,3.87
2022-12-22T14:32:55.062Z,3.72
2022-12-22T14:35:23.164Z,3.63
2022-12-22T14:38:24.006Z,3.57
2022-12-22T14:40:57.245Z,3.53
2022-12-22T14:43:32.325Z,3.54
2022-12-22T14:46:09.221Z,3.54
2022-12-22T14:48:47.284Z,3.51
2022-12-22T14:51:20.920Z,3.49
2022-12-22T14:53:52.220Z,3.50
2022-12-22T14:56:27.467Z,3.46
2022-12-22T14:59:27.693Z,3.49
2022-12-22T15:02:30.000Z,3.49
2022-12-22T15:05:29.529Z,3.42
2022-12-22T15:08:07.807Z,3.49
2022-12-22T15:10:44.541Z,3.46
2022-12-22T15:13:39.344Z,3.51
2022-12-22T15:16:13.320Z,3.49
2022-12-22T15:18:40.931Z,3.45
2022-12-22T15:21:13.409Z,3.47
2022-12-22T15:23:41.379Z,3.50
2022-12-22T15:26:09.689Z,3.55
2022-12-22T15:28:36.780Z,3.56
2022-12-22T15:31:07.480Z,3.61
2022-12-22T15:33:34.801Z,3.65
2022-12-22T15:36:03.808Z,3.66
2022-12-22T15:38:38.369Z,3.68
2022-12-22T15:41:07.196Z,3.73
2022-12-22T15:43:57.180Z,3.79
2022-12-22T15:46:25.258Z,3.85
2022-12-22T15:48:53.243Z,3.91
2022-12-22T15:51:28.324Z,3.97
2022-12-22T15:53:58.445Z,3.96
2022-12-22T15:56:31.465Z,4.04
2022-12-22T15:58:59.600Z,4.22
2022-12-22T16:01:27.156Z,4.27
2022-12-22T16:03:57.577Z,4.36
2022-12-22T16:06:25.491Z,4.37
2022-12-22T16:08:54.710Z,4.42
2022-12-22T16:11:21.999Z,4.47
2022-12-22T16:13:50.673Z,4.51
2022-12-22T16:16:18.247Z,4.52
2022-12-22T16:18:45.898Z,4.47
2022-12-22T16:21:19.408Z,4.49
2022-12-22T16:23:48.617Z,4.56
2022-12-22T16:26:20.902Z,4.63
2022-12-22T16:28:48.533Z,4.81
2022-12-22T16:31:26.143Z,4.85
2022-12-22T16:33:53.821Z,4.80
2022-12-22T16:36:21.235Z,4.87
2022-12-22T16:38:50.735Z,4.84
2022-12-22T16:41:22.503Z,4.76
2022-12-22T16:46:45.430Z,4.63
2022-12-22T16:49:22.902Z,4.54
2022-12-22T16:51:54.953Z,4.59
2022-12-22T16:54:22.527Z,4.68
2022-12-22T16:56:52.180Z,4.77
2022-12-22T16:59:20.509Z,4.91
2022-12-22T17:01:57.952Z,5.11
2022-12-22T17:04:30.159Z,5.30
2022-12-22T17:06:59.634Z,5.60
2022-12-22T17:09:33.758Z,5.70
2022-12-22T17:12:01.722Z,5.77
2022-12-22T17:14:37.830Z,5.94
2022-12-22T17:17:05.298Z,5.93
2022-12-22T17:19:32.388Z,5.81
2022-12-22T17:22:01.500Z,5.72
2022-12-22T17:24:29.245Z,5.51
2022-12-22T17:27:06.342Z,5.22
2022-12-22T17:29:35.416Z,5.00
2022-12-22T17:32:02.945Z,4.88
2022-12-22T17:34:32.143Z,4.92
2022-12-22T17:37:00.289Z,4.78
2022-12-22T17:39:30.360Z,4.75
2022-12-22T17:41:57.939Z,4.66
2022-12-22T17:44:27.027Z,4.66
2022-12-22T17:46:54.478Z,4.58
2022-12-22T17:49:27.511Z,4.43
2022-12-22T17:51:55.021Z,4.27
2022-12-22T17:54:27.551Z,4.16
2022-12-22T17:57:03.543Z,4.07
2022-12-22T17:59:31.198Z,4.01
2022-12-22T18:01:59.606Z,3.90
2022-12-22T18:04:28.167Z,3.88
2022-12-22T18:06:56.323Z,3.90
2022-12-22T18:09:26.597Z,3.85
2022-12-22T18:11:55.159Z,3.86
2022-12-22T18:14:23.522Z,3.78
2022-12-22T18:16:51.145Z,3.81
2022-12-22T18:19:18.569Z,3.78
2022-12-22T18:21:46.047Z,3.71
2022-12-22T18:24:19.122Z,3.72
2022-12-22T18:26:47.424Z,3.70
2022-12-22T18:29:18.882Z,3.68
2022-12-22T18:31:46.602Z,3.66
2022-12-22T18:34:14.062Z,3.61
2022-12-22T18:36:42.786Z,3.60
2022-12-22T18:39:17.975Z,3.57
2022-12-22T18:41:45.602Z,3.59
2022-12-22T18:44:19.526Z,3.61
2022-12-22T18:46:47.671Z,3.64
2022-12-22T18:49:17.020Z,3.66
2022-12-22T18:51:45.046Z,3.65
2022-12-22T18:54:31.671Z,3.67
2022-12-22T18:56:59.535Z,3.65
2022-12-22T18:59:28.429Z,3.59
2022-12-22T19:02:19.562Z,3.65
2022-12-22T19:04:52.427Z,3.67
2022-12-22T19:07:23.260Z,3.70
2022-12-22T19:09:53.142Z,3.72
2022-12-22T19:12:26.177Z,3.70
2022-12-22T19:14:58.998Z,3.74
2022-12-22T19:17:29.153Z,3.82
2022-12-22T19:19:57.474Z,3.87
2022-12-22T19:22:25.485Z,3.91
2022-12-22T19:25:01.069Z,3.97
2022-12-22T19:27:29.199Z,4.02
2022-12-22T19:30:04.197Z,4.08
2022-12-22T19:32:46.346Z,4.14
2022-12-22T19:35:18.030Z,4.25
2022-12-22T19:37:51.673Z,4.30
2022-12-22T19:40:20.490Z,4.48
2022-12-22T19:42:52.655Z,4.51
2022-12-22T19:45:24.938Z,4.44
2022-12-22T19:47:54.223Z,4.52
2022-12-22T19:50:26.445Z,4.42
2022-12-22T19:52:55.683Z,4.54
2022-12-22T19:55:25.988Z,4.59
2022-12-22T19:57:55.779Z,4.54
2022-12-22T20:00:27.048Z,4.51
2022-12-22T20:02:57.530Z,4.51
2022-12-22T20:05:30.517Z,4.55
2022-12-22T20:08:02.643Z,4.41
2022-12-22T20:10:33.665Z,4.31
2022-12-22T20:13:20.104Z,4.41
2022-12-22T20:15:50.204Z,4.40
2022-12-22T20:18:23.362Z,4.31
2022-12-22T20:21:02.123Z,4.33
2022-12-22T20:23:36.579Z,4.22
2022-12-22T20:26:08.185Z,4.27
2022-12-22T20:28:39.162Z,4.20
2022-12-22T20:31:08.881Z,4.12
2022-12-22T20:33:36.551Z,4.06
2022-12-22T20:36:17.452Z,3.89
2022-12-22T20:38:47.604Z,4.04
2022-12-22T20:41:15.299Z,4.02
2022-12-22T20:43:45.695Z,4.08
2022-12-22T20:46:26.695Z,4.04
2022-12-22T20:49:03.537Z,4.04
2022-12-22T20:51:33.889Z,4.08
2022-12-22T20:54:01.754Z,3.94
2022-12-22T20:56:35.954Z,4.00
2022-12-22T20:59:24.208Z,4.04
2022-12-22T21:01:53.393Z,4.13
2022-12-22T21:04:22.405Z,4.19
2022-12-22T21:06:52.050Z,4.34
2022-12-22T21:09:20.030Z,4.33
2022-12-22T21:11:48.884Z,4.25
2022-12-22T21:14:16.856Z,4.36
2022-12-22T21:16:44.951Z,4.40
2022-12-22T21:19:18.395Z,4.41
2022-12-22T21:21:46.009Z,4.44
2022-12-22T21:24:14.745Z,4.38
2022-12-22T21:26:48.467Z,4.44
2022-12-22T21:29:23.001Z,4.46
2022-12-22T21:31:50.848Z,4.41
2022-12-22T21:34:18.557Z,4.49
2022-12-22T21:36:49.011Z,4.38
2022-12-22T21:39:33.549Z,4.28
2022-12-22T21:42:00.989Z,4.25
2022-12-22T21:44:31.340Z,4.24
2022-12-22T21:46:59.578Z,4.29
2022-12-22T21:49:29.435Z,4.33
2022-12-22T21:51:56.844Z,4.44
2022-12-22T21:54:25.989Z,4.53
2022-12-22T21:56:54.454Z,4.55
2022-12-22T21:59:24.211Z,4.58
2022-12-22T22:01:57.484Z,4.52
2022-12-22T22:04:25.398Z,4.55
2022-12-22T22:06:53.917Z,4.59
2022-12-22T22:09:21.406Z,4.66
2022-12-22T22:12:07.151Z,4.72
2022-12-22T22:14:36.476Z,4.85
2022-12-22T22:17:03.868Z,4.88
2022-12-22T22:19:32.370Z,4.94
2022-12-22T22:21:59.743Z,4.98
2022-12-22T22:24:27.218Z,4.97
2022-12-22T22:26:56.515Z,5.00
2022-12-22T22:29:23.726Z,5.03
2022-12-22T22:31:51.178Z,5.13
2022-12-22T22:34:18.729Z,5.12
2022-12-22T22:36:51.940Z,5.01
2022-12-22T22:39:19.189Z,4.90
2022-12-22T22:41:46.585Z,4.78
2022-12-22T22:44:14.083Z,4.68
2022-12-22T22:46:41.804Z,4.71
2022-12-22T22:49:09.198Z,4.86
2022-12-22T22:51:36.341Z,5.03
2022-12-22T22:54:04.086Z,5.16
2022-12-22T22:56:39.039Z,5.22
2022-12-22T22:59:07.441Z,5.23
2022-12-22T23:01:35.069Z,5.24
2022-12-22T23:04:03.482Z,5.28
2022-12-22T23:06:31.874Z,5.22
2022-12-22T23:08:59.681Z,5.24
2022-12-22T23:11:29.471Z,5.16
2022-12-22T23:13:56.871Z,5.23
2022-12-22T23:16:25.290Z,5.26
2022-12-22T23:18:55.723Z,5.24
2022-12-22T23:21:24.534Z,5.11
2022-12-22T23:23:56.706Z,5.20
2022-12-22T23:26:25.607Z,5.31
2022-12-22T23:28:56.572Z,5.31
2022-12-22T23:31:28.784Z,5.42
2022-12-22T23:33:57.639Z,5.32
2022-12-22T23:36:25.361Z,5.46
2022-12-22T23:38:52.927Z,5.53
2022-12-22T23:41:20.564Z,5.52
2022-12-22T23:43:49.400Z,5.47
2022-12-22T23:46:17.958Z,5.53
2022-12-22T23:48:49.837Z,5.37
2022-12-22T23:51:18.174Z,5.34
2022-12-22T23:53:45.355Z,5.20
2022-12-22T23:56:18.868Z,5.02
2022-12-22T23:58:50.960Z,5.00
